Victoria International Airport
CYYJ : now visible

Airfield :











YOU CAN JOIN US ON...

 
LOGIN :

Register | Disclaimer

   EN    FR    IT 

 









Legend :    VFR   Marginal VFR   IFR   Intensive IFR   Very Intensive IFR
Visi :
Ceiling :
>= 8 km
>= 3000ft
5 to 8 km
1000 to 3000 ft
1500m to 5 km
500 to 1000 ft
800 to 1500m
200 to 500 ft
< 800m
< 200 ft
Symbols :   Thunderstorms  Fog  Heavy snow  Heavy precipitations  Wind > 20 kt






- Airport Elevation : 63 ft
- IATA code : YYJ


CYYJ - Victoria International

CURRENT METAR :
  • 061445Z 29006KT 15SM -RA BKN070 OVC100 06/06 A2993 RMK AC5AC3 SLP137

EXPIRED METARs :
  • 061400Z 28005KT 15SM SCT075 BKN090 OVC110 06/06 A2993 RMK AC3AC3AC2 SLP138
  • 061300Z 26004KT 15SM SCT067 BKN080 OVC110 05/05 A2994 RMK AC3AC3AC2 SLP140
  • 061200Z 31004KT 15SM BKN084 OVC150 05/05 A2994 RMK AC5AC3 SLP142

TAF TAF CYYJ
Valid from the 06 at 12:00 until the 07 at 12:00 UTC


061138Z 0612/0712 28005KT P6SM SCT015 BKN050 OVC120
TEMPO 0612/0615 P6SM -RA SCT008 OVC015
FM061500 28005KT P6SM BKN060
BECMG 0621/0623 VRB03KT
FM070000 30006KT P6SM SCT030 BKN060
TEMPO 0700/0709 P6SM -SHRA OVC030
FM070900 20006KT P6SM BKN015 RMK NXT FCST BY 061800Z



MET'MAP, your aeronautical weather chart ! - Copyright ORBIFLY December 2007 - Disclaimer

ORBIFLY MET'MAP TEAM :

Programming & Development : Alexandra Zaïnal
Concept & original design : Baudouin d'Aumeries
Assistance for programming : Marc-Olivier Méhu
Technical & hardware support : Manuel Goepfert

Contact : metmap@orbifly.com




SOURCES & CREDITS :

   NOAA       Earth
Advisory